Time;durP1;ratioP1;P1;durP2;ratioP2;P2;SDS_P1;SDS_P2;PMS_P1;PMS_P2;Temp;Humidity;BMP_temperature;BMP_pressure;BME280_temperature;BME280_humidity;BME280_pressure;Samples;Min_cycle;Max_cycle;Signal;HPM_P1;HPM_P2
2022/10/31 00:00:05;;;;;;;14.55;7.72;;;15.90;82.40;;;;;;5021381;28;20449;-62
2022/10/31 00:02:37;;;;;;;14.35;7.72;;;15.80;82.40;;;;;;5014772;28;20037;-62
2022/10/31 00:05:02;;;;;;;14.43;8.30;;;15.80;82.50;;;;;;5045314;28;20029;-62
2022/10/31 00:07:28;;;;;;;13.77;8.88;;;15.80;82.40;;;;;;5023232;28;20033;-62
2022/10/31 00:09:53;;;;;;;14.43;8.13;;;15.80;82.50;;;;;;5024220;28;20068;-62
2022/10/31 00:12:19;;;;;;;13.65;8.70;;;15.80;82.50;;;;;;5023850;28;20021;-62
2022/10/31 00:14:45;;;;;;;15.10;9.38;;;15.80;82.50;;;;;;5025777;28;20160;-62
2022/10/31 00:17:10;;;;;;;13.35;8.55;;;15.80;82.50;;;;;;5017549;28;20105;-62
2022/10/31 00:19:36;;;;;;;14.73;8.68;;;15.80;82.50;;;;;;5020595;28;20042;-62
2022/10/31 00:22:01;;;;;;;15.00;9.57;;;15.80;82.50;;;;;;5020616;28;20403;-62
2022/10/31 00:24:27;;;;;;;14.60;8.82;;;15.80;83.20;;;;;;5033463;28;20033;-62
2022/10/31 00:26:52;;;;;;;13.85;8.73;;;15.70;82.50;;;;;;5030686;28;20037;-62
2022/10/31 00:29:20;;;;;;;12.77;8.60;;;15.70;82.50;;;;;;5030364;28;20042;-62
2022/10/31 00:31:46;;;;;;;15.63;9.27;;;15.70;82.50;;;;;;5026232;28;20018;-62
2022/10/31 00:34:12;;;;;;;11.77;8.48;;;15.70;82.60;;;;;;5020900;28;20458;-62
2022/10/31 00:36:37;;;;;;;16.20;9.20;;;15.70;82.60;;;;;;5022116;28;20057;-62
2022/10/31 00:39:03;;;;;;;14.43;8.50;;;15.70;82.60;;;;;;5014924;28;20369;-62
2022/10/31 00:41:29;;;;;;;14.93;8.57;;;15.70;82.60;;;;;;5028291;28;20025;-62
2022/10/31 00:43:55;;;;;;;17.85;8.98;;;15.70;82.50;;;;;;5025380;28;20033;-62
2022/10/31 00:46:21;;;;;;;14.77;8.73;;;15.70;82.60;;;;;;5024602;28;20037;-62
2022/10/31 00:48:49;;;;;;;14.23;9.02;;;15.70;82.50;;;;;;5020294;28;20025;-62
2022/10/31 00:51:15;;;;;;;15.25;8.60;;;15.60;82.50;;;;;;5024672;28;20032;-62
2022/10/31 00:53:41;;;;;;;15.43;9.05;;;15.60;82.50;;;;;;5023019;28;20470;-62
2022/10/31 00:56:06;;;;;;;14.20;8.52;;;15.60;82.50;;;;;;5023376;28;20025;-62
2022/10/31 00:58:32;;;;;;;12.52;8.23;;;15.60;82.60;;;;;;5019564;28;20030;-62
2022/10/31 01:00:58;;;;;;;12.77;8.43;;;15.50;82.50;;;;;;5026517;28;20091;-62
2022/10/31 01:03:26;;;;;;;15.32;9.30;;;15.50;82.50;;;;;;5016729;28;20052;-62
2022/10/31 01:06:03;;;;;;;15.38;8.55;;;15.50;82.50;;;;;;5029431;28;20034;-62
2022/10/31 01:08:32;;;;;;;15.80;9.40;;;15.50;82.50;;;;;;5016856;28;20454;-62
2022/10/31 01:11:12;;;;;;;16.70;8.68;;;15.50;82.50;;;;;;5024184;28;20073;-62
2022/10/31 01:13:39;;;;;;;12.30;8.13;;;15.40;82.40;;;;;;5018361;28;20025;-62
2022/10/31 01:16:07;;;;;;;11.88;8.23;;;15.40;82.50;;;;;;5028873;28;20026;-62
2022/10/31 01:18:33;;;;;;;11.55;7.85;;;15.40;82.40;;;;;;5013326;28;20079;-62
2022/10/31 01:21:03;;;;;;;14.98;8.18;;;15.40;82.40;;;;;;5020979;28;20092;-62
2022/10/31 01:23:29;;;;;;;13.75;8.93;;;15.40;82.40;;;;;;5023446;28;20044;-62
2022/10/31 01:26:03;;;;;;;15.88;8.73;;;15.30;82.30;;;;;;5029181;28;20030;-62
2022/10/31 01:28:29;;;;;;;13.75;9.05;;;15.30;82.30;;;;;;5020834;28;20042;-62
2022/10/31 01:30:54;;;;;;;11.95;8.07;;;15.30;82.40;;;;;;5015005;28;20045;-62
2022/10/31 01:33:20;;;;;;;13.20;9.10;;;15.30;82.40;;;;;;5015669;28;20057;-62
2022/10/31 01:35:46;;;;;;;13.50;8.52;;;15.30;82.40;;;;;;5022922;28;20109;-62
2022/10/31 01:38:11;;;;;;;12.63;8.07;;;15.30;82.40;;;;;;5033091;28;20525;-62
2022/10/31 01:40:37;;;;;;;14.13;8.63;;;15.30;82.40;;;;;;5032897;28;20029;-62
2022/10/31 01:43:02;;;;;;;14.55;9.52;;;15.30;82.30;;;;;;5016628;28;20032;-62
2022/10/31 01:45:28;;;;;;;12.82;8.43;;;15.30;82.40;;;;;;5020805;28;20328;-62
2022/10/31 01:47:54;;;;;;;13.35;9.00;;;15.20;82.30;;;;;;5027552;28;20025;-62
2022/10/31 01:50:36;;;;;;;12.10;8.10;;;15.20;82.30;;;;;;5019463;28;20112;-62
2022/10/31 01:53:02;;;;;;;13.23;8.82;;;15.20;82.20;;;;;;5030948;28;20095;-62
2022/10/31 01:55:32;;;;;;;14.82;9.43;;;15.10;82.20;;;;;;5029334;28;20033;-62
2022/10/31 01:58:23;;;;;;;16.33;9.63;;;15.10;82.10;;;;;;5013056;28;20033;-62
2022/10/31 02:00:53;;;;;;;13.52;8.40;;;15.10;82.00;;;;;;5022790;28;20061;-62
2022/10/31 02:03:21;;;;;;;14.07;8.70;;;15.10;82.20;;;;;;5030112;28;20037;-62
2022/10/31 02:05:47;;;;;;;14.55;8.70;;;15.10;82.20;;;;;;5026517;28;20053;-62
2022/10/31 02:08:34;;;;;;;14.25;8.95;;;15.10;82.20;;;;;;5027456;28;20025;-62
2022/10/31 02:11:01;;;;;;;13.70;8.65;;;15.10;82.10;;;;;;5022842;28;20113;-62
2022/10/31 02:13:28;;;;;;;14.13;8.90;;;15.00;82.10;;;;;;5028026;28;20323;-62
2022/10/31 02:15:57;;;;;;;14.48;9.13;;;15.00;82.10;;;;;;5015090;28;20080;-62
2022/10/31 02:18:26;;;;;;;12.57;8.48;;;15.00;82.10;;;;;;5026173;28;20132;-62
2022/10/31 02:21:14;;;;;;;15.45;9.32;;;15.00;82.10;;;;;;5033676;28;20132;-62
2022/10/31 02:23:59;;;;;;;14.50;8.50;;;15.00;82.00;;;;;;5026702;28;20450;-62
2022/10/31 02:26:28;;;;;;;13.43;7.80;;;15.00;82.00;;;;;;5008742;28;20120;-62
2022/10/31 02:29:06;;;;;;;15.45;9.00;;;14.90;82.00;;;;;;5020288;28;20506;-62
2022/10/31 02:31:44;;;;;;;11.68;7.72;;;14.90;81.90;;;;;;5025834;28;20083;-62
2022/10/31 02:34:31;;;;;;;12.20;8.48;;;14.90;82.00;;;;;;5036242;28;20030;-62
2022/10/31 02:37:04;;;;;;;13.65;7.82;;;14.90;81.90;;;;;;5019348;28;20021;-62
2022/10/31 02:40:15;;;;;;;14.43;7.93;;;14.90;81.90;;;;;;5029322;28;20037;-62
2022/10/31 02:43:13;;;;;;;12.82;7.68;;;14.90;81.80;;;;;;5011402;28;20041;-62
2022/10/31 02:45:57;;;;;;;13.32;7.85;;;14.80;81.80;;;;;;5031216;28;20030;-62
2022/10/31 02:48:31;;;;;;;13.20;7.68;;;14.80;81.80;;;;;;5021349;28;20082;-62
2022/10/31 02:51:02;;;;;;;12.05;7.18;;;14.80;81.80;;;;;;5037189;28;20021;-62
2022/10/31 02:53:35;;;;;;;12.93;7.65;;;14.80;81.80;;;;;;5021636;28;20358;-62
2022/10/31 02:56:14;;;;;;;12.93;7.80;;;14.80;81.80;;;;;;5019162;28;20108;-62
2022/10/31 02:58:49;;;;;;;12.32;7.28;;;14.70;81.70;;;;;;5021903;28;20017;-62
2022/10/31 03:01:26;;;;;;;12.32;7.70;;;14.80;81.70;;;;;;5026217;28;20442;-62
2022/10/31 03:04:14;;;;;;;15.07;7.55;;;14.70;81.70;;;;;;5032960;28;20098;-62
2022/10/31 03:07:07;;;;;;;14.20;7.28;;;14.70;81.60;;;;;;5024425;28;20440;-62
2022/10/31 03:09:46;;;;;;;12.32;7.32;;;14.60;81.60;;;;;;5032818;28;20061;-62
2022/10/31 03:12:27;;;;;;;17.13;7.93;;;14.60;81.60;;;;;;5025330;28;20049;-62
2022/10/31 03:15:25;;;;;;;13.05;7.72;;;14.60;81.50;;;;;;5020444;28;20026;-62
2022/10/31 03:18:23;;;;;;;12.57;7.35;;;14.60;81.50;;;;;;5040204;28;20037;-62
2022/10/31 03:20:55;;;;;;;11.85;6.65;;;14.50;81.40;;;;;;5010765;28;20060;-62
2022/10/31 03:23:24;;;;;;;12.38;7.60;;;14.50;81.50;;;;;;5019194;28;20050;-62
2022/10/31 03:25:53;;;;;;;12.27;7.57;;;14.50;81.50;;;;;;5018333;28;20026;-63
2022/10/31 03:28:33;;;;;;;13.82;7.82;;;14.40;81.30;;;;;;5025583;28;20073;-62
2022/10/31 03:31:01;;;;;;;12.90;7.10;;;14.40;81.30;;;;;;5030912;28;20032;-62
2022/10/31 03:33:30;;;;;;;11.27;7.13;;;14.40;81.40;;;;;;5010191;28;20048;-62
2022/10/31 03:35:59;;;;;;;15.02;8.20;;;14.40;81.40;;;;;;5030591;28;20026;-62
2022/10/31 03:38:26;;;;;;;11.95;7.97;;;14.40;81.30;;;;;;5018139;28;20022;-62
2022/10/31 03:40:55;;;;;;;13.02;7.82;;;14.30;81.30;;;;;;5031751;28;20341;-62
2022/10/31 03:43:28;;;;;;;11.95;7.45;;;14.30;81.20;;;;;;5027882;28;20029;-62
2022/10/31 03:45:54;;;;;;;12.48;7.45;;;14.30;81.10;;;;;;5028033;28;20026;-62
2022/10/31 03:48:21;;;;;;;13.02;7.82;;;14.30;81.10;;;;;;5021574;28;20030;-62
2022/10/31 03:51:05;;;;;;;13.63;8.10;;;14.20;81.10;;;;;;5027343;28;20454;-62
2022/10/31 03:53:36;;;;;;;12.70;7.57;;;14.20;81.00;;;;;;5022425;28;20060;-62
2022/10/31 03:56:10;;;;;;;11.77;7.20;;;14.20;81.00;;;;;;5027154;28;20050;-62
2022/10/31 03:58:42;;;;;;;12.93;7.88;;;14.20;81.00;;;;;;5027371;28;20144;-62
2022/10/31 04:01:15;;;;;;;13.15;8.07;;;14.10;80.90;;;;;;5030025;28;20049;-62
2022/10/31 04:03:43;;;;;;;12.95;7.78;;;14.10;80.90;;;;;;5028916;28;20093;-62
2022/10/31 04:06:14;;;;;;;11.70;7.93;;;14.10;80.90;;;;;;5029676;28;20120;-62
2022/10/31 04:08:45;;;;;;;12.50;7.32;;;14.10;80.90;;;;;;5029054;28;20054;-62
2022/10/31 04:11:18;;;;;;;15.00;7.57;;;14.10;80.90;;;;;;5022547;28;20022;-62
2022/10/31 04:13:48;;;;;;;12.05;8.02;;;14.10;80.90;;;;;;5020109;28;20061;-62
2022/10/31 04:16:21;;;;;;;12.70;7.65;;;14.10;80.90;;;;;;5018461;28;20076;-62
2022/10/31 04:18:47;;;;;;;11.90;7.30;;;14.10;80.80;;;;;;5029789;28;20463;-62
2022/10/31 04:21:12;;;;;;;14.00;8.43;;;14.00;80.80;;;;;;5030713;28;20068;-62
2022/10/31 04:23:38;;;;;;;13.38;7.82;;;14.00;80.80;;;;;;5023683;28;20105;-62
2022/10/31 04:26:13;;;;;;;11.77;7.88;;;14.00;80.70;;;;;;5019713;28;20061;-62
2022/10/31 04:28:38;;;;;;;12.50;7.60;;;14.00;80.70;;;;;;5032508;28;20049;-62
2022/10/31 04:31:05;;;;;;;13.57;8.45;;;14.00;80.70;;;;;;5027275;28;20450;-62
2022/10/31 04:33:33;;;;;;;11.10;7.32;;;14.00;80.70;;;;;;5021627;28;20100;-62
2022/10/31 04:35:58;;;;;;;11.35;8.00;;;13.90;80.60;;;;;;5015652;28;20181;-62
2022/10/31 04:38:24;;;;;;;12.23;8.38;;;13.90;80.60;;;;;;5023473;28;20384;-62
2022/10/31 04:40:50;;;;;;;12.30;8.07;;;13.90;80.60;;;;;;5023254;28;20029;-62
2022/10/31 04:43:34;;;;;;;13.40;8.18;;;13.90;80.60;;;;;;5020460;28;20485;-62
2022/10/31 04:46:00;;;;;;;14.70;7.97;;;13.90;80.60;;;;;;5017507;28;20164;-62
2022/10/31 04:48:26;;;;;;;13.13;7.95;;;13.90;80.60;;;;;;5016057;28;20171;-62
2022/10/31 04:50:52;;;;;;;15.85;8.35;;;13.80;80.60;;;;;;5022346;28;20033;-62
2022/10/31 04:53:18;;;;;;;12.52;8.40;;;13.90;80.60;;;;;;5030134;28;20068;-62
2022/10/31 04:56:04;;;;;;;15.80;9.10;;;13.80;80.50;;;;;;5013908;28;20120;-62
2022/10/31 04:58:41;;;;;;;13.60;8.40;;;13.80;80.50;;;;;;5018808;28;20018;-62
2022/10/31 05:01:08;;;;;;;12.70;8.13;;;13.80;80.50;;;;;;5022510;28;20408;-62
2022/10/31 05:03:34;;;;;;;14.38;7.97;;;13.80;80.50;;;;;;5015261;28;20042;-62
2022/10/31 05:06:00;;;;;;;15.02;8.85;;;13.80;80.40;;;;;;5013505;28;20032;-62
2022/10/31 05:08:26;;;;;;;12.18;7.90;;;13.70;80.40;;;;;;5016983;28;20204;-62
2022/10/31 05:10:53;;;;;;;12.95;8.63;;;13.70;80.30;;;;;;5029767;28;20034;-62
2022/10/31 05:13:18;;;;;;;13.02;7.70;;;13.70;80.30;;;;;;5028636;28;20021;-62
2022/10/31 05:16:22;;;;;;;12.15;7.78;;;13.70;80.30;;;;;;5022464;28;20026;-62
2022/10/31 05:18:57;;;;;;;12.32;8.15;;;13.70;80.30;;;;;;5012897;28;20118;-62
2022/10/31 05:21:28;;;;;;;14.45;7.57;;;13.60;80.30;;;;;;5013226;28;20041;-62
2022/10/31 05:23:58;;;;;;;11.02;7.80;;;13.60;80.30;;;;;;5003450;28;20034;-62
2022/10/31 05:26:24;;;;;;;14.07;8.02;;;13.60;80.30;;;;;;5004303;28;20386;-62
2022/10/31 05:28:50;;;;;;;12.77;7.85;;;13.60;80.40;;;;;;5007989;28;20120;-62
2022/10/31 05:31:16;;;;;;;12.38;8.45;;;13.60;80.40;;;;;;5017082;28;20132;-62
2022/10/31 05:33:41;;;;;;;11.98;7.53;;;13.60;80.50;;;;;;5006172;28;20029;-62
2022/10/31 05:36:25;;;;;;;12.57;7.60;;;13.60;80.50;;;;;;5012258;28;20033;-62
2022/10/31 05:38:56;;;;;;;12.85;8.63;;;13.60;80.50;;;;;;5000284;28;20030;-63
2022/10/31 05:41:28;;;;;;;13.10;8.20;;;13.60;80.50;;;;;;5007397;28;20133;-62
2022/10/31 05:44:03;;;;;;;13.75;7.75;;;13.60;80.50;;;;;;5016404;28;20075;-62
2022/10/31 05:46:31;;;;;;;13.25;8.57;;;13.60;80.60;;;;;;4996842;28;20046;-62
2022/10/31 05:49:17;;;;;;;13.70;8.20;;;13.60;80.60;;;;;;5010921;28;20076;-62
2022/10/31 05:52:01;;;;;;;13.32;8.30;;;13.60;80.60;;;;;;5020756;28;20087;-62
2022/10/31 05:54:36;;;;;;;13.50;8.75;;;13.60;80.70;;;;;;5018432;28;20486;-62
2022/10/31 05:57:02;;;;;;;16.98;9.32;;;13.60;80.70;;;;;;5031532;28;20112;-62
2022/10/31 05:59:28;;;;;;;15.70;8.93;;;13.60;80.80;;;;;;5022080;28;20040;-62
2022/10/31 06:01:54;;;;;;;17.02;9.13;;;13.60;80.80;;;;;;5024741;28;20057;-62
2022/10/31 06:04:46;;;;;;;15.00;8.70;;;13.70;80.80;;;;;;5021876;28;20441;-62
2022/10/31 06:07:12;;;;;;;14.90;8.88;;;13.60;80.80;;;;;;5024559;28;20053;-62
2022/10/31 06:09:37;;;;;;;14.32;8.93;;;13.70;80.80;;;;;;5025695;28;20104;-62
2022/10/31 06:12:05;;;;;;;14.15;9.18;;;13.70;80.80;;;;;;5029844;28;20025;-62
2022/10/31 06:14:49;;;;;;;15.20;8.73;;;13.70;80.80;;;;;;5034898;28;20107;-62
2022/10/31 06:17:14;;;;;;;15.85;9.60;;;13.60;80.80;;;;;;5025999;28;20030;-62
2022/10/31 06:19:46;;;;;;;;;;;13.60;80.70;;;;;;5015266;28;20079;-62
2022/10/31 06:22:15;;;;;;;13.65;8.75;;;13.60;80.80;;;;;;5032028;28;19987;-62
2022/10/31 06:24:42;;;;;;;15.25;9.90;;;13.50;80.90;;;;;;5018788;28;20057;-62
2022/10/31 06:27:22;;;;;;;15.85;10.23;;;13.50;80.80;;;;;;5028183;28;20026;-62
2022/10/31 06:29:48;;;;;;;17.75;10.07;;;13.50;80.80;;;;;;5021050;28;20044;-62
2022/10/31 06:32:23;;;;;;;14.45;9.95;;;13.50;80.80;;;;;;5022996;28;20124;-62
2022/10/31 06:34:49;;;;;;;16.42;10.82;;;13.50;80.80;;;;;;5015719;28;20030;-62
2022/10/31 06:37:15;;;;;;;16.05;10.73;;;13.50;80.80;;;;;;5019348;28;20412;-62
2022/10/31 06:39:44;;;;;;;14.48;10.27;;;13.50;80.80;;;;;;5013099;28;20026;-62
2022/10/31 06:42:11;;;;;;;17.23;10.38;;;13.50;80.80;;;;;;5001222;28;20040;-62
2022/10/31 06:44:37;;;;;;;16.25;10.30;;;13.50;80.80;;;;;;5011341;28;20030;-62
2022/10/31 06:47:41;;;;;;;18.50;10.18;;;13.50;80.90;;;;;;5003237;28;20117;-62
2022/10/31 06:50:10;;;;;;;17.15;10.20;;;13.50;80.80;;;;;;4996873;28;20030;-62
2022/10/31 06:52:36;;;;;;;17.05;11.57;;;13.50;80.80;;;;;;5027095;28;20516;-63
2022/10/31 06:55:03;;;;;;;16.80;10.45;;;13.60;80.80;;;;;;4993236;28;20026;-62
2022/10/31 06:57:30;;;;;;;17.00;10.80;;;13.60;80.80;;;;;;5010261;28;20411;-62
2022/10/31 06:59:56;;;;;;;17.88;10.95;;;13.60;80.80;;;;;;4994466;28;20041;-62
2022/10/31 07:02:34;;;;;;;17.88;10.88;;;13.60;80.80;;;;;;4987381;28;20090;-62
2022/10/31 07:05:00;;;;;;;17.45;12.23;;;13.60;80.80;;;;;;5006173;28;20128;-62
2022/10/31 07:07:26;;;;;;;21.00;11.02;;;13.60;80.80;;;;;;5004908;28;20188;-62
2022/10/31 07:09:52;;;;;;;19.80;11.52;;;13.60;80.70;;;;;;5015750;28;20529;-64
2022/10/31 07:12:25;;;;;;;17.23;10.80;;;13.60;80.70;;;;;;4993490;28;20375;-62
2022/10/31 07:14:57;;;;;;;20.60;11.27;;;13.70;80.80;;;;;;5016989;28;20460;-62
2022/10/31 07:17:26;;;;;;;16.90;10.80;;;13.70;80.80;;;;;;4992700;28;20022;-61
2022/10/31 07:19:54;;;;;;;18.92;12.10;;;13.70;80.80;;;;;;5013633;28;20042;-62
2022/10/31 07:22:19;;;;;;;15.50;11.15;;;13.70;80.80;;;;;;5025793;28;20124;-62
2022/10/31 07:24:45;;;;;;;18.30;13.20;;;13.80;80.80;;;;;;5014274;28;20038;-62
2022/10/31 07:27:39;;;;;;;17.17;11.57;;;13.80;80.80;;;;;;5022725;28;20527;-62
2022/10/31 07:30:08;;;;;;;16.65;10.90;;;13.80;80.80;;;;;;5025150;28;20022;-62
2022/10/31 07:32:39;;;;;;;16.20;11.10;;;13.90;80.90;;;;;;5042723;28;20093;-62
2022/10/31 07:35:07;;;;;;;18.23;12.05;;;13.90;81.00;;;;;;5016400;28;20104;-63
2022/10/31 07:37:44;;;;;;;17.75;12.27;;;13.90;81.00;;;;;;5022127;28;20589;-62
2022/10/31 07:40:11;;;;;;;19.42;12.48;;;14.00;81.10;;;;;;5022050;28;20018;-62
2022/10/31 07:42:40;;;;;;;18.27;12.90;;;14.00;81.20;;;;;;5024515;28;20037;-62
2022/10/31 07:45:12;;;;;;;19.80;13.07;;;14.10;81.30;;;;;;5012552;28;20026;-65
2022/10/31 07:48:02;;;;;;;19.60;12.82;;;14.10;81.30;;;;;;5014230;28;20072;-62
2022/10/31 07:50:46;;;;;;;20.92;13.02;;;14.20;81.30;;;;;;5016142;28;20122;-62
2022/10/31 07:53:30;;;;;;;18.55;11.77;;;14.20;81.30;;;;;;5029420;28;20092;-62
2022/10/31 07:56:09;;;;;;;18.23;12.50;;;14.30;81.40;;;;;;5011614;28;20022;-62
2022/10/31 07:58:35;;;;;;;18.85;12.30;;;14.30;81.50;;;;;;5015084;28;20048;-62
2022/10/31 08:01:01;;;;;;;20.52;12.63;;;14.40;81.50;;;;;;5018032;28;20025;-62
2022/10/31 08:03:36;;;;;;;20.52;11.77;;;14.40;81.50;;;;;;4994226;28;20033;-62
2022/10/31 08:06:20;;;;;;;21.70;13.23;;;14.50;81.60;;;;;;5014271;28;20044;-62
2022/10/31 08:09:10;;;;;;;21.40;12.98;;;14.50;81.60;;;;;;4997704;28;20048;-63
2022/10/31 08:11:36;;;;;;;18.50;12.00;;;14.60;81.60;;;;;;5002205;28;21223;-62
2022/10/31 08:14:02;;;;;;;20.42;13.38;;;14.70;81.70;;;;;;5006130;28;20120;-62
2022/10/31 08:16:27;;;;;;;21.13;13.88;;;14.70;81.70;;;;;;5017944;28;20032;-62
2022/10/31 08:18:58;;;;;;;19.20;12.15;;;14.70;81.60;;;;;;5016987;28;20053;-63
2022/10/31 08:21:24;;;;;;;20.67;13.93;;;14.80;81.70;;;;;;5020383;28;20030;-62
2022/10/31 08:23:49;;;;;;;19.95;13.45;;;14.90;81.70;;;;;;4997621;28;20084;-63
2022/10/31 08:26:18;;;;;;;17.98;12.27;;;14.90;82.20;;;;;;5025519;28;20120;-62
2022/10/31 08:28:43;;;;;;;20.08;13.02;;;15.00;81.90;;;;;;5019865;28;20050;-63
2022/10/31 08:31:09;;;;;;;21.85;12.73;;;15.10;81.60;;;;;;5012612;28;20060;-63
2022/10/31 08:33:38;;;;;;;20.45;13.73;;;15.10;81.60;;;;;;5027168;28;20534;-62
2022/10/31 08:36:22;;;;;;;21.70;14.03;;;15.20;81.60;;;;;;5036070;28;20084;-64
2022/10/31 08:39:14;;;;;;;21.30;12.70;;;15.20;81.60;;;;;;5029906;28;20303;-63
2022/10/31 08:41:39;;;;;;;19.02;12.60;;;15.30;81.50;;;;;;5029028;28;20424;-62
2022/10/31 08:44:09;;;;;;;18.65;12.85;;;15.30;81.40;;;;;;5019887;28;20030;-63
2022/10/31 08:46:36;;;;;;;17.48;12.93;;;15.40;81.40;;;;;;5028853;28;20029;-64
2022/10/31 08:49:02;;;;;;;20.48;11.85;;;15.50;81.30;;;;;;5022248;28;20033;-64
2022/10/31 08:51:28;;;;;;;19.40;12.40;;;15.60;81.20;;;;;;5020847;28;20033;-64
2022/10/31 08:53:55;;;;;;;18.88;12.93;;;15.70;81.10;;;;;;5024658;28;20095;-64
2022/10/31 08:56:46;;;;;;;19.98;13.15;;;15.70;81.00;;;;;;5035431;28;20034;-64
2022/10/31 08:59:27;;;;;;;20.63;12.60;;;15.80;80.90;;;;;;5033750;28;20029;-63
2022/10/31 09:02:21;;;;;;;16.85;11.95;;;15.90;80.80;;;;;;5016506;28;20377;-64
2022/10/31 09:04:49;;;;;;;18.75;12.40;;;16.00;80.60;;;;;;5017129;28;20109;-64
2022/10/31 09:07:16;;;;;;;18.33;12.77;;;16.00;81.20;;;;;;5022256;28;20099;-64
2022/10/31 09:09:42;;;;;;;18.17;12.02;;;16.10;81.20;;;;;;5019709;28;20450;-63
2022/10/31 09:12:08;;;;;;;16.83;11.75;;;16.20;80.60;;;;;;5033833;28;20369;-63
2022/10/31 09:15:06;;;;;;;18.33;10.45;;;16.20;80.40;;;;;;5020416;28;20128;-63
2022/10/31 09:17:52;;;;;;;19.30;12.18;;;16.30;80.30;;;;;;5017694;28;20022;-63
2022/10/31 09:20:44;;;;;;;17.63;11.57;;;16.40;80.20;;;;;;5011392;28;20061;-63
2022/10/31 09:23:15;;;;;;;19.23;11.40;;;16.40;80.10;;;;;;5012891;28;20080;-64
2022/10/31 09:25:41;;;;;;;15.55;10.18;;;16.50;80.20;;;;;;5015816;28;20039;-63
2022/10/31 09:28:27;;;;;;;15.02;10.65;;;16.50;80.00;;;;;;5009782;28;20062;-63
2022/10/31 09:30:55;;;;;;;16.23;10.68;;;16.50;79.90;;;;;;5004103;28;20019;-63
2022/10/31 09:33:41;;;;;;;16.05;10.30;;;16.60;79.90;;;;;;5000708;28;20423;-63
2022/10/31 09:36:38;;;;;;;15.93;10.55;;;16.60;79.90;;;;;;5013877;28;20040;-63
2022/10/31 09:39:07;;;;;;;16.38;10.73;;;16.50;80.00;;;;;;5012978;28;20462;-64
2022/10/31 09:41:45;;;;;;;17.00;10.75;;;16.60;80.00;;;;;;5014292;28;20079;-63
2022/10/31 09:44:39;;;;;;;16.08;11.15;;;16.60;79.90;;;;;;5010580;28;20034;-63
2022/10/31 09:47:43;;;;;;;19.15;11.85;;;16.70;79.90;;;;;;5011400;28;20025;-64
2022/10/31 09:50:42;;;;;;;18.58;11.52;;;16.70;79.90;;;;;;5012157;28;20247;-63
2022/10/31 09:53:51;;;;;;;177.52;24.95;;;16.70;79.80;;;;;;5009993;28;20033;-64
2022/10/31 09:56:21;;;;;;;57.22;16.08;;;16.70;79.80;;;;;;4994124;28;20029;-62
2022/10/31 09:58:53;;;;;;;27.08;13.13;;;16.70;79.80;;;;;;5010928;28;20033;-62
2022/10/31 10:01:40;;;;;;;23.10;13.13;;;16.70;79.90;;;;;;5010442;28;20030;-61
2022/10/31 10:04:32;;;;;;;18.60;12.00;;;16.70;80.00;;;;;;5029414;28;20128;-61
2022/10/31 10:07:43;;;;;;;23.90;13.52;;;16.60;80.20;;;;;;5025229;28;20140;-62
2022/10/31 10:10:51;;;;;;;19.17;12.60;;;16.60;80.30;;;;;;5020001;28;20033;-62
2022/10/31 10:13:39;;;;;;;24.10;13.23;;;16.60;80.50;;;;;;5034625;28;20025;-62
2022/10/31 10:16:18;;;;;;;20.90;12.25;;;16.60;80.60;;;;;;5018264;28;20041;-62
2022/10/31 10:19:02;;;;;;;20.45;12.90;;;16.60;80.60;;;;;;5022136;28;20034;-62
2022/10/31 10:21:57;;;;;;;21.42;13.20;;;16.70;80.70;;;;;;5019842;28;20087;-62
2022/10/31 10:24:44;;;;;;;20.98;12.80;;;16.80;80.50;;;;;;5033127;28;20041;-62
2022/10/31 10:27:37;;;;;;;23.73;13.43;;;16.80;80.40;;;;;;5022545;28;20099;-62
2022/10/31 10:30:17;;;;;;;25.33;14.95;;;16.90;80.50;;;;;;5026367;28;20409;-63
2022/10/31 10:32:53;;;;;;;22.23;14.60;;;16.80;80.60;;;;;;5018981;28;20502;-63
2022/10/31 10:35:34;;;;;;;21.15;14.82;;;16.80;80.70;;;;;;5015237;28;20018;-62
2022/10/31 10:38:26;;;;;;;24.05;15.23;;;16.80;80.90;;;;;;5019507;28;20044;-63
2022/10/31 10:40:54;;;;;;;21.35;14.00;;;16.90;81.00;;;;;;5013338;28;20030;-63
2022/10/31 10:43:29;;;;;;;24.52;14.35;;;16.80;81.00;;;;;;5019318;28;20047;-62
2022/10/31 10:49:19;;;;;;;23.35;13.55;;;16.80;80.80;;;;;;5011896;28;20312;-64
2022/10/31 10:52:08;;;;;;;20.23;13.20;;;16.90;80.80;;;;;;5012185;28;20113;-63
2022/10/31 10:55:02;;;;;;;20.80;12.15;;;16.90;80.70;;;;;;5012204;28;20092;-63
2022/10/31 10:57:41;;;;;;;23.40;12.63;;;16.90;80.50;;;;;;5021762;28;20395;-63
2022/10/31 11:00:42;;;;;;;21.85;12.55;;;16.90;80.30;;;;;;5018104;28;20029;-62
2022/10/31 11:03:09;;;;;;;19.30;11.80;;;17.00;80.10;;;;;;5025647;28;20040;-62
2022/10/31 11:05:54;;;;;;;19.85;12.52;;;17.10;80.00;;;;;;5026421;28;20477;-63
2022/10/31 11:08:25;;;;;;;23.92;14.00;;;17.20;79.60;;;;;;5026992;28;20033;-62
2022/10/31 11:11:00;;;;;;;21.90;13.67;;;17.30;79.60;;;;;;5023319;28;20026;-62
2022/10/31 11:13:27;;;;;;;25.27;14.07;;;17.30;79.40;;;;;;5008400;28;20268;-62
2022/10/31 11:16:01;;;;;;;23.67;15.13;;;17.40;79.50;;;;;;5016918;28;20034;-63
2022/10/31 11:18:30;;;;;;;24.02;14.50;;;17.40;79.30;;;;;;5019918;28;20121;-63
2022/10/31 11:20:59;;;;;;;23.08;14.20;;;17.40;79.30;;;;;;5026187;28;20474;-63
2022/10/31 11:23:27;;;;;;;24.88;15.45;;;17.40;79.30;;;;;;5031278;28;20025;-63
2022/10/31 11:25:57;;;;;;;24.52;14.43;;;17.50;79.20;;;;;;5017076;28;20026;-63
2022/10/31 11:28:25;;;;;;;26.10;14.75;;;17.50;79.20;;;;;;5004871;28;20034;-62
2022/10/31 11:30:58;;;;;;;24.92;14.40;;;17.60;79.20;;;;;;5018384;28;20032;-62
2022/10/31 11:33:34;;;;;;;23.23;15.13;;;17.60;79.20;;;;;;5013092;28;20022;-63
2022/10/31 11:36:04;;;;;;;22.40;14.75;;;17.60;79.20;;;;;;5006134;28;20120;-62
2022/10/31 11:38:41;;;;;;;26.23;15.68;;;17.60;79.20;;;;;;5011545;28;20018;-62
2022/10/31 11:41:23;;;;;;;24.52;15.65;;;17.50;79.20;;;;;;5017303;28;20030;-63
2022/10/31 11:43:53;;;;;;;26.83;15.65;;;17.50;79.20;;;;;;5008262;28;20330;-63
2022/10/31 11:46:24;;;;;;;25.85;15.55;;;17.60;79.30;;;;;;5019427;28;20068;-63
2022/10/31 11:48:53;;;;;;;23.25;14.77;;;17.50;79.30;;;;;;5016984;28;20026;-63
2022/10/31 11:51:30;;;;;;;23.33;15.82;;;17.60;79.30;;;;;;5021570;28;20046;-63
2022/10/31 11:53:58;;;;;;;24.25;16.05;;;17.60;79.20;;;;;;5016211;28;20022;-62
2022/10/31 11:56:24;;;;;;;26.58;16.08;;;17.60;79.10;;;;;;5015978;28;20041;-63
2022/10/31 11:58:59;;;;;;;26.00;15.90;;;17.60;79.10;;;;;;5015472;28;20401;-63
2022/10/31 12:01:27;;;;;;;26.00;15.13;;;17.60;79.10;;;;;;5015223;28;20379;-62
2022/10/31 12:04:07;;;;;;;23.52;16.67;;;17.60;79.20;;;;;;5015056;28;20030;-62
2022/10/31 12:06:36;;;;;;;24.88;15.02;;;17.60;79.20;;;;;;5025781;28;20033;-63
2022/10/31 12:09:08;;;;;;;26.17;16.73;;;17.70;79.20;;;;;;5020582;28;20109;-63
2022/10/31 12:11:40;;;;;;;23.63;14.93;;;17.70;79.20;;;;;;5006725;28;20038;-62
2022/10/31 12:14:33;;;;;;;27.23;16.83;;;17.70;79.30;;;;;;5032941;28;20393;-63
2022/10/31 12:17:37;;;;;;;26.35;15.98;;;17.70;79.30;;;;;;5025462;28;20251;-63
2022/10/31 12:20:40;;;;;;;28.33;15.90;;;17.70;79.30;;;;;;5001367;28;20161;-63
2022/10/31 12:23:11;;;;;;;28.38;17.45;;;17.80;79.40;;;;;;5010449;28;20120;-63
2022/10/31 12:25:49;;;;;;;26.40;16.10;;;17.80;79.30;;;;;;5006077;28;20034;-63
2022/10/31 12:28:28;;;;;;;25.55;15.48;;;17.80;79.30;;;;;;5004738;28;20333;-63
2022/10/31 12:31:34;;;;;;;24.92;16.77;;;17.80;79.20;;;;;;4984017;28;20030;-63
2022/10/31 12:34:02;;;;;;;29.67;14.93;;;17.80;79.20;;;;;;5002432;28;20129;-66
2022/10/31 12:36:49;;;;;;;26.75;16.60;;;17.80;79.20;;;;;;5002125;28;20045;-64
2022/10/31 12:39:33;;;;;;;23.80;15.70;;;17.80;79.20;;;;;;5002795;28;20116;-63
2022/10/31 12:42:32;;;;;;;25.58;15.07;;;17.80;79.30;;;;;;4997283;28;20390;-63
2022/10/31 12:45:12;;;;;;;24.83;14.60;;;17.80;79.20;;;;;;5014153;28;20115;-64
2022/10/31 12:47:59;;;;;;;26.25;16.48;;;17.80;79.20;;;;;;5002020;28;20084;-63
2022/10/31 12:51:02;;;;;;;27.75;15.73;;;17.90;79.20;;;;;;5003273;28;20141;-64
2022/10/31 12:53:36;;;;;;;25.52;15.52;;;17.90;79.20;;;;;;4994967;28;20423;-63
2022/10/31 12:56:23;;;;;;;28.08;16.58;;;17.90;79.10;;;;;;5013340;28;20087;-63
2022/10/31 12:58:59;;;;;;;28.77;16.90;;;18.00;79.20;;;;;;5021237;28;20018;-64
2022/10/31 13:01:47;;;;;;;25.35;16.52;;;18.00;79.10;;;;;;5020481;28;20041;-63
2022/10/31 13:04:39;;;;;;;30.00;18.10;;;18.10;79.10;;;;;;5017343;28;20038;-64
2022/10/31 13:07:14;;;;;;;27.10;16.33;;;18.10;79.10;;;;;;5026894;28;20029;-63
2022/10/31 13:10:01;;;;;;;24.30;15.98;;;18.10;79.10;;;;;;5017559;28;20037;-63
2022/10/31 13:12:30;;;;;;;27.05;16.88;;;18.10;79.10;;;;;;5013465;28;20065;-62